createdAt,value
2017-06-29T00:02:24.265Z,3.70
2017-06-29T00:04:50.285Z,3.50
2017-06-29T00:07:16.325Z,3.83
2017-06-29T00:09:42.348Z,3.23
2017-06-29T00:12:08.354Z,4.00
2017-06-29T00:14:34.367Z,3.70
2017-06-29T00:17:00.379Z,4.37
2017-06-29T00:19:26.411Z,3.63
2017-06-29T00:21:53.152Z,3.83
2017-06-29T00:24:19.170Z,4.17
2017-06-29T00:26:45.180Z,4.87
2017-06-29T00:29:11.194Z,3.90
2017-06-29T00:31:37.208Z,4.40
2017-06-29T00:34:03.207Z,4.03
2017-06-29T00:36:29.960Z,4.00
2017-06-29T00:38:56.689Z,3.97
2017-06-29T00:41:22.720Z,4.97
2017-06-29T00:43:48.709Z,3.70
2017-06-29T00:46:14.724Z,4.87
2017-06-29T00:48:40.733Z,4.97
2017-06-29T00:51:06.757Z,4.13
2017-06-29T00:53:32.755Z,5.17
2017-06-29T00:55:58.767Z,4.50
2017-06-29T00:58:24.764Z,4.20
2017-06-29T01:00:50.825Z,4.30
2017-06-29T01:03:16.840Z,4.57
2017-06-29T01:05:42.892Z,4.20
2017-06-29T01:08:08.911Z,4.47
2017-06-29T01:10:34.916Z,4.17
2017-06-29T01:13:00.912Z,4.20
2017-06-29T01:15:26.963Z,3.90
2017-06-29T01:17:52.968Z,3.90
2017-06-29T01:20:19.711Z,3.50
2017-06-29T01:22:45.724Z,4.30
2017-06-29T01:25:11.733Z,4.20
2017-06-29T01:27:37.738Z,5.60
2017-06-29T01:30:03.727Z,4.37
2017-06-29T01:32:30.508Z,4.30
2017-06-29T01:34:56.513Z,4.20
2017-06-29T01:37:22.575Z,3.63
2017-06-29T01:39:48.609Z,4.27
2017-06-29T01:42:14.623Z,4.30
2017-06-29T01:44:40.657Z,3.93
2017-06-29T01:47:06.671Z,4.40
2017-06-29T01:49:32.681Z,4.57
2017-06-29T01:51:58.691Z,4.70
2017-06-29T01:54:24.719Z,4.60
2017-06-29T01:56:50.762Z,4.30
2017-06-29T01:59:16.771Z,4.70
2017-06-29T02:01:42.795Z,4.50
2017-06-29T02:04:08.845Z,4.43
2017-06-29T02:06:35.600Z,4.70
2017-06-29T02:09:02.384Z,4.90
2017-06-29T02:11:28.380Z,4.13
2017-06-29T02:13:55.129Z,4.53
2017-06-29T02:16:21.928Z,4.37
2017-06-29T02:18:47.939Z,4.43
2017-06-29T02:21:13.983Z,4.30
2017-06-29T02:23:39.994Z,4.63
2017-06-29T02:26:06.001Z,4.13
2017-06-29T02:28:32.007Z,3.70
2017-06-29T02:30:58.805Z,4.10
2017-06-29T02:33:24.821Z,3.40
2017-06-29T02:35:50.914Z,3.20
2017-06-29T02:38:16.931Z,3.43
2017-06-29T02:40:42.942Z,2.60
2017-06-29T02:43:08.970Z,3.23
2017-06-29T02:45:34.987Z,3.00
2017-06-29T02:48:01.022Z,3.40
2017-06-29T02:50:27.036Z,3.77
2017-06-29T02:52:53.055Z,3.40
2017-06-29T02:55:19.074Z,3.00
2017-06-29T02:57:45.106Z,3.60
2017-06-29T03:00:11.108Z,2.97
2017-06-29T03:02:37.121Z,3.07
2017-06-29T03:05:03.147Z,3.20
2017-06-29T03:07:29.201Z,3.23
2017-06-29T03:09:55.214Z,3.37
2017-06-29T03:12:21.232Z,3.60
2017-06-29T03:14:47.247Z,3.40
2017-06-29T03:17:13.276Z,3.77
2017-06-29T03:19:39.298Z,3.80
2017-06-29T03:22:05.298Z,3.00
2017-06-29T03:24:31.335Z,3.90
2017-06-29T03:26:57.398Z,3.73
2017-06-29T03:29:23.405Z,4.00
2017-06-29T03:31:49.427Z,3.73
2017-06-29T03:34:15.495Z,4.30
2017-06-29T03:36:41.543Z,3.97
2017-06-29T03:39:07.593Z,4.27
2017-06-29T03:41:34.371Z,3.73
2017-06-29T03:44:00.380Z,3.53
2017-06-29T03:46:26.392Z,3.30
2017-06-29T03:48:53.146Z,3.90
2017-06-29T03:51:19.168Z,3.40
2017-06-29T03:53:46.031Z,2.70
2017-06-29T03:56:12.048Z,1.60
2017-06-29T03:58:38.795Z,1.97
2017-06-29T04:01:05.560Z,2.30
2017-06-29T04:03:31.555Z,3.07
2017-06-29T04:05:57.584Z,2.70
2017-06-29T04:08:23.580Z,2.40
2017-06-29T04:10:49.589Z,2.90
2017-06-29T04:13:15.592Z,2.93
2017-06-29T04:15:41.605Z,3.00
2017-06-29T04:18:07.625Z,3.40
2017-06-29T04:20:33.615Z,4.20
2017-06-29T04:23:00.381Z,5.20
2017-06-29T04:25:26.379Z,4.70
2017-06-29T04:27:52.416Z,3.70
2017-06-29T04:30:18.418Z,4.43
2017-06-29T04:32:44.476Z,5.00
2017-06-29T04:35:10.475Z,5.53
2017-06-29T04:37:36.477Z,6.07
2017-06-29T04:40:02.508Z,6.87
2017-06-29T04:42:28.539Z,6.17
2017-06-29T04:44:54.557Z,6.17
2017-06-29T04:47:21.311Z,6.60
2017-06-29T04:49:47.323Z,6.03
2017-06-29T04:52:13.315Z,6.70
2017-06-29T04:54:39.325Z,7.30
2017-06-29T04:57:05.336Z,6.80
2017-06-29T04:59:31.355Z,7.57
2017-06-29T05:01:57.384Z,7.03
2017-06-29T05:04:23.463Z,6.57
2017-06-29T05:06:49.488Z,7.93
2017-06-29T05:09:15.484Z,6.90
2017-06-29T05:11:42.400Z,5.70
2017-06-29T05:14:08.418Z,7.97
2017-06-29T05:16:34.472Z,7.70
2017-06-29T05:19:00.498Z,6.60
2017-06-29T05:21:26.524Z,8.03
2017-06-29T05:23:52.556Z,7.30
2017-06-29T05:26:18.607Z,7.80
2017-06-29T05:28:44.619Z,7.83
2017-06-29T05:31:10.682Z,8.10
2017-06-29T05:33:36.757Z,6.53
2017-06-29T05:36:02.796Z,7.57
2017-06-29T05:38:28.813Z,7.27
2017-06-29T05:40:54.821Z,6.80
2017-06-29T05:43:20.848Z,7.23
2017-06-29T05:45:46.865Z,7.30
2017-06-29T05:48:12.900Z,6.30
2017-06-29T05:50:38.896Z,6.87
2017-06-29T05:53:05.674Z,6.67
2017-06-29T05:55:31.667Z,6.20
2017-06-29T05:57:57.716Z,5.73
2017-06-29T06:00:24.470Z,6.67
2017-06-29T06:02:50.489Z,6.80
2017-06-29T06:05:16.573Z,7.17
2017-06-29T06:07:42.636Z,6.97
2017-06-29T06:10:08.669Z,6.50
2017-06-29T06:12:34.675Z,6.37
2017-06-29T06:15:00.683Z,7.60
2017-06-29T06:17:26.692Z,6.97
2017-06-29T06:19:52.723Z,7.10
2017-06-29T06:22:18.771Z,6.10
2017-06-29T06:24:44.771Z,6.63
2017-06-29T06:27:10.772Z,7.23
2017-06-29T06:29:38.804Z,5.50
2017-06-29T06:32:04.842Z,5.80
2017-06-29T06:34:30.856Z,6.67
2017-06-29T06:36:56.919Z,5.20
2017-06-29T06:39:22.921Z,5.83
2017-06-29T06:41:48.916Z,5.70
2017-06-29T06:44:14.923Z,5.80
2017-06-29T06:46:40.923Z,5.07
2017-06-29T06:49:06.905Z,4.27
2017-06-29T06:51:32.903Z,5.40
2017-06-29T06:53:58.900Z,5.07
2017-06-29T06:56:24.910Z,5.10
2017-06-29T06:58:50.920Z,5.83
2017-06-29T07:01:16.919Z,4.50
2017-06-29T07:03:42.932Z,5.00
2017-06-29T07:06:09.050Z,5.37
2017-06-29T07:08:35.064Z,5.33
2017-06-29T07:11:01.064Z,4.50
2017-06-29T07:13:27.076Z,4.30
2017-06-29T07:15:53.827Z,3.97
2017-06-29T07:18:20.584Z,4.10
2017-06-29T07:20:46.587Z,3.93
2017-06-29T07:23:16.285Z,4.50
2017-06-29T07:25:42.295Z,4.10
2017-06-29T07:28:10.502Z,4.30
2017-06-29T07:30:36.495Z,3.67
2017-06-29T07:33:02.501Z,4.43
2017-06-29T07:35:52.709Z,4.37
2017-06-29T07:38:18.724Z,3.57
2017-06-29T07:40:44.711Z,3.67
2017-06-29T07:43:11.444Z,4.13
2017-06-29T07:45:37.432Z,3.60
2017-06-29T07:48:22.374Z,4.23
2017-06-29T07:50:49.822Z,4.10
2017-06-29T07:56:12.936Z,6.03
2017-06-29T07:58:38.916Z,4.70
2017-06-29T08:01:07.019Z,4.67
2017-06-29T08:03:33.316Z,4.80
2017-06-29T08:06:00.052Z,4.70
2017-06-29T08:08:47.395Z,4.00
2017-06-29T08:11:34.841Z,4.13
2017-06-29T08:14:00.880Z,4.20
2017-06-29T08:16:26.904Z,4.40
2017-06-29T08:19:06.919Z,4.20
2017-06-29T08:21:32.939Z,4.13
2017-06-29T08:27:14.219Z,3.53
2017-06-29T08:29:41.060Z,3.27
2017-06-29T08:32:07.072Z,2.87
2017-06-29T08:34:33.068Z,3.00
2017-06-29T08:36:59.099Z,3.00
2017-06-29T08:39:43.900Z,3.00
2017-06-29T08:42:10.943Z,2.60
2017-06-29T08:44:36.952Z,2.63
2017-06-29T08:47:08.016Z,2.30
2017-06-29T08:49:34.093Z,2.40
2017-06-29T08:52:00.107Z,3.00
2017-06-29T08:54:26.112Z,2.13
2017-06-29T08:56:52.851Z,2.90
2017-06-29T08:59:19.611Z,3.17
2017-06-29T09:01:46.407Z,3.27
2017-06-29T09:04:12.443Z,3.80
2017-06-29T09:06:38.436Z,4.57
2017-06-29T09:09:11.588Z,4.00
2017-06-29T09:11:38.371Z,4.00
2017-06-29T09:14:06.371Z,3.87
2017-06-29T09:16:32.440Z,4.50
2017-06-29T09:19:02.135Z,5.27
2017-06-29T09:21:28.138Z,4.90
2017-06-29T09:23:54.142Z,5.13
2017-06-29T09:26:20.179Z,4.53
2017-06-29T09:28:46.280Z,6.10
2017-06-29T09:31:12.311Z,6.30
2017-06-29T09:34:00.661Z,6.20
2017-06-29T09:36:27.404Z,6.00
2017-06-29T09:38:54.136Z,5.80
2017-06-29T09:41:33.736Z,6.30
2017-06-29T09:43:59.850Z,6.10
2017-06-29T09:46:25.943Z,5.17
2017-06-29T09:48:52.703Z,6.40
2017-06-29T09:51:30.085Z,5.87
2017-06-29T09:53:56.851Z,5.23
2017-06-29T09:56:23.423Z,6.20
2017-06-29T09:59:11.848Z,6.23
2017-06-29T10:01:37.844Z,6.90
2017-06-29T10:04:04.592Z,6.70
2017-06-29T10:06:31.332Z,7.57
2017-06-29T10:09:01.327Z,7.00
2017-06-29T10:11:27.342Z,7.10
2017-06-29T10:13:53.351Z,7.40
2017-06-29T10:16:46.269Z,7.20
2017-06-29T10:19:14.323Z,6.20
2017-06-29T10:21:41.063Z,7.00
2017-06-29T10:24:27.059Z,5.47
2017-06-29T10:26:53.957Z,6.53
2017-06-29T10:29:25.881Z,6.90
2017-06-29T10:34:45.737Z,5.90
2017-06-29T10:37:13.789Z,6.23
2017-06-29T10:39:41.350Z,6.10
2017-06-29T10:42:09.397Z,5.80
2017-06-29T10:44:39.381Z,7.20
2017-06-29T10:47:05.504Z,6.50
2017-06-29T10:49:44.270Z,6.20
2017-06-29T10:52:15.688Z,7.03
2017-06-29T10:54:59.863Z,6.40
2017-06-29T10:57:31.277Z,6.47
2017-06-29T10:59:59.411Z,5.80
2017-06-29T11:02:36.122Z,5.87
2017-06-29T11:05:02.240Z,4.73
2017-06-29T11:07:34.743Z,4.90
2017-06-29T11:10:07.001Z,3.93
2017-06-29T11:12:33.123Z,3.60
2017-06-29T11:15:09.861Z,4.20
2017-06-29T11:18:00.278Z,4.13
2017-06-29T11:20:26.364Z,4.73
2017-06-29T11:22:54.396Z,4.37
2017-06-29T11:28:40.227Z,3.90
2017-06-29T11:31:23.824Z,3.70
2017-06-29T11:33:49.992Z,3.77
2017-06-29T11:36:15.992Z,4.13
2017-06-29T11:41:35.567Z,3.63
2017-06-29T11:49:53.872Z,3.27
2017-06-29T11:52:30.291Z,3.97
2017-06-29T11:54:57.378Z,4.60
2017-06-29T11:57:23.475Z,3.30
2017-06-29T12:00:02.105Z,2.80
2017-06-29T12:02:44.436Z,3.30
2017-06-29T12:05:16.943Z,2.70
2017-06-29T12:07:50.162Z,3.20
2017-06-29T12:10:22.443Z,2.80
2017-06-29T12:12:55.729Z,2.40
2017-06-29T12:15:27.182Z,2.33
2017-06-29T12:17:53.219Z,2.10
2017-06-29T12:20:19.253Z,2.57
2017-06-29T12:22:56.124Z,2.67
2017-06-29T12:25:22.314Z,2.13
2017-06-29T12:27:56.217Z,1.87
2017-06-29T12:30:29.161Z,1.37
2017-06-29T12:33:00.436Z,1.13
2017-06-29T12:35:26.524Z,1.60
2017-06-29T12:37:57.455Z,3.87
2017-06-29T12:40:25.571Z,1.00
2017-06-29T12:42:59.828Z,1.50
2017-06-29T12:45:38.263Z,1.20
2017-06-29T12:48:12.814Z,1.03
2017-06-29T12:50:41.629Z,0.90
2017-06-29T12:53:11.617Z,1.00
2017-06-29T12:55:49.013Z,0.80
2017-06-29T12:58:22.308Z,1.00
2017-06-29T13:00:50.160Z,0.80
2017-06-29T13:03:16.309Z,1.10
2017-06-29T13:05:43.077Z,1.40
2017-06-29T13:08:29.374Z,1.20
2017-06-29T13:11:00.102Z,1.00
2017-06-29T13:13:26.246Z,1.40
2017-06-29T13:15:52.299Z,1.43
2017-06-29T13:18:26.695Z,1.50
2017-06-29T13:21:00.981Z,1.03
2017-06-29T13:23:27.900Z,1.27
2017-06-29T13:25:57.943Z,1.40
2017-06-29T13:28:32.174Z,1.93
2017-06-29T13:31:02.525Z,1.40
2017-06-29T13:33:30.760Z,1.23
2017-06-29T13:36:01.239Z,1.60
2017-06-29T13:38:44.479Z,1.50
2017-06-29T13:41:28.171Z,1.70
2017-06-29T13:44:05.577Z,1.80
2017-06-29T13:46:39.106Z,1.67
2017-06-29T13:49:15.405Z,1.20
2017-06-29T13:51:42.442Z,1.50
2017-06-29T13:57:05.488Z,1.67
2017-06-29T14:02:25.415Z,1.83
2017-06-29T14:05:11.752Z,1.73
2017-06-29T14:07:41.312Z,1.33
2017-06-29T14:10:07.335Z,1.30
2017-06-29T14:12:41.990Z,1.37
2017-06-29T14:15:08.143Z,1.50
2017-06-29T14:17:41.605Z,1.27
2017-06-29T14:20:11.168Z,1.40
2017-06-29T14:22:51.299Z,1.40
2017-06-29T14:25:17.349Z,1.50
2017-06-29T14:27:43.362Z,1.30
2017-06-29T14:30:09.427Z,1.50
2017-06-29T14:32:35.525Z,1.17
2017-06-29T14:35:03.579Z,1.80
2017-06-29T14:37:33.267Z,1.30
2017-06-29T14:40:05.601Z,1.70
2017-06-29T14:42:31.616Z,1.30
2017-06-29T14:45:12.027Z,1.30
2017-06-29T14:47:38.159Z,2.77
2017-06-29T14:50:07.671Z,1.40
2017-06-29T14:52:33.672Z,9.13
2017-06-29T14:55:10.394Z,19.30
2017-06-29T14:57:37.443Z,26.83
2017-06-29T15:03:00.489Z,21.10
2017-06-29T15:05:28.968Z,2.07
2017-06-29T15:07:55.111Z,1.63
2017-06-29T15:10:24.405Z,2.10
2017-06-29T15:13:12.691Z,1.70
2017-06-29T15:15:45.124Z,1.10
2017-06-29T15:18:11.298Z,1.10
2017-06-29T15:20:45.699Z,0.90
2017-06-29T15:23:12.774Z,0.80
2017-06-29T15:25:59.372Z,0.80
2017-06-29T15:28:25.498Z,0.80
2017-06-29T15:30:52.639Z,0.60
2017-06-29T15:33:29.451Z,1.10
2017-06-29T15:36:09.877Z,0.80
2017-06-29T15:38:37.759Z,0.73
2017-06-29T15:41:15.431Z,1.30
2017-06-29T15:43:45.967Z,0.70
2017-06-29T15:46:19.064Z,1.07
2017-06-29T15:48:45.167Z,1.03
2017-06-29T15:51:23.697Z,0.97
2017-06-29T15:53:58.100Z,1.20
2017-06-29T15:56:28.633Z,1.20
2017-06-29T15:59:01.828Z,1.50
2017-06-29T16:01:27.943Z,1.40
2017-06-29T16:04:04.424Z,1.67
2017-06-29T16:06:30.439Z,2.30
2017-06-29T16:08:56.490Z,2.07
2017-06-29T16:11:26.614Z,1.90
2017-06-29T16:13:59.895Z,1.57
2017-06-29T16:16:33.201Z,1.90
2017-06-29T16:19:05.595Z,1.87
2017-06-29T16:21:32.343Z,2.33
2017-06-29T16:24:05.203Z,2.30
2017-06-29T16:26:31.335Z,2.17
2017-06-29T16:29:11.607Z,2.17
2017-06-29T16:31:49.941Z,2.30
2017-06-29T16:34:17.106Z,2.23
2017-06-29T16:36:46.892Z,2.30
2017-06-29T16:39:28.159Z,2.63
2017-06-29T16:41:58.776Z,1.83
2017-06-29T16:44:30.122Z,1.80
2017-06-29T16:47:00.458Z,1.60
2017-06-29T16:49:36.732Z,1.60
2017-06-29T16:52:04.595Z,1.93
2017-06-29T16:54:44.373Z,1.90
2017-06-29T16:57:14.864Z,1.63
2017-06-29T16:59:51.131Z,1.37
2017-06-29T17:02:18.308Z,1.70
2017-06-29T17:04:49.742Z,2.10
2017-06-29T17:07:15.829Z,2.10
2017-06-29T17:09:44.004Z,1.33
2017-06-29T17:12:11.209Z,1.70
2017-06-29T17:14:47.935Z,1.40
2017-06-29T17:17:21.122Z,2.33
2017-06-29T17:19:47.172Z,3.00
2017-06-29T17:22:13.232Z,2.10
2017-06-29T17:24:40.770Z,1.60
2017-06-29T17:27:08.697Z,1.70
2017-06-29T17:29:35.823Z,2.40
2017-06-29T17:32:01.932Z,2.00
2017-06-29T17:34:32.514Z,2.07
2017-06-29T17:37:03.717Z,1.93
2017-06-29T17:39:33.137Z,2.10
2017-06-29T17:41:59.251Z,4.27
2017-06-29T17:44:27.344Z,1.73
2017-06-29T17:46:53.474Z,2.27
2017-06-29T17:49:35.234Z,1.80
2017-06-29T17:52:11.988Z,1.43
2017-06-29T17:54:53.417Z,2.10
2017-06-29T17:57:20.459Z,1.37
2017-06-29T17:59:48.584Z,1.77
2017-06-29T18:02:20.518Z,2.03
2017-06-29T18:05:06.981Z,1.40
2017-06-29T18:07:33.018Z,2.50
2017-06-29T18:10:02.950Z,1.37
2017-06-29T18:12:31.038Z,1.77
2017-06-29T18:14:57.137Z,2.70
2017-06-29T18:17:26.772Z,1.97
2017-06-29T18:20:10.125Z,1.53
2017-06-29T18:22:36.222Z,1.70
2017-06-29T18:25:06.956Z,1.80
2017-06-29T18:27:38.338Z,1.00
2017-06-29T18:30:05.173Z,1.43
2017-06-29T18:32:35.027Z,1.70
2017-06-29T18:35:02.521Z,1.43
2017-06-29T18:37:29.688Z,1.00
2017-06-29T18:39:55.777Z,1.37
2017-06-29T18:42:21.823Z,1.53
2017-06-29T18:44:47.867Z,1.50
2017-06-29T18:47:19.771Z,1.67
2017-06-29T18:49:47.624Z,1.00
2017-06-29T18:52:13.746Z,1.20
2017-06-29T18:54:41.857Z,1.70
2017-06-29T18:57:15.138Z,1.20
2017-06-29T18:59:49.456Z,1.40
2017-06-29T19:02:15.597Z,1.70
2017-06-29T19:04:43.655Z,1.30
2017-06-29T19:07:09.650Z,2.23
2017-06-29T19:09:48.567Z,1.43
2017-06-29T19:12:21.927Z,1.10
2017-06-29T19:14:54.404Z,1.70
2017-06-29T19:17:23.304Z,1.90
2017-06-29T19:19:50.082Z,1.33
2017-06-29T19:22:33.366Z,1.57
2017-06-29T19:25:03.763Z,1.03
2017-06-29T19:27:29.776Z,1.10
2017-06-29T19:30:11.326Z,1.40
2017-06-29T19:32:43.668Z,1.07
2017-06-29T19:35:17.101Z,0.83
2017-06-29T19:37:46.438Z,1.10
2017-06-29T19:40:22.843Z,1.27
2017-06-29T19:42:53.246Z,1.40
2017-06-29T19:45:22.720Z,0.90
2017-06-29T19:47:52.758Z,1.00
2017-06-29T19:50:18.803Z,1.33
2017-06-29T19:52:58.276Z,0.80
2017-06-29T19:55:41.823Z,1.00
2017-06-29T19:58:11.304Z,1.10
2017-06-29T20:00:37.415Z,0.90
2017-06-29T20:03:06.931Z,1.40
2017-06-29T20:05:33.039Z,1.30
2017-06-29T20:08:10.471Z,1.30
2017-06-29T20:10:55.027Z,1.10
2017-06-29T20:13:21.847Z,1.30
2017-06-29T20:15:47.952Z,1.43
2017-06-29T20:18:31.023Z,0.80
2017-06-29T20:21:09.536Z,0.70
2017-06-29T20:23:36.376Z,1.23
2017-06-29T20:26:15.195Z,1.30
2017-06-29T20:28:48.515Z,1.17
2017-06-29T20:31:18.042Z,1.00
2017-06-29T20:33:46.191Z,0.90
2017-06-29T20:36:26.548Z,1.13
2017-06-29T20:38:54.417Z,1.47
2017-06-29T20:41:29.320Z,1.23
2017-06-29T20:44:02.732Z,1.20
2017-06-29T20:46:38.075Z,1.20
2017-06-29T20:49:14.435Z,1.03
2017-06-29T20:51:43.231Z,1.03
2017-06-29T20:54:16.251Z,1.23
2017-06-29T20:56:47.560Z,1.33
2017-06-29T20:59:21.909Z,1.17
2017-06-29T21:01:53.226Z,1.07
2017-06-29T21:04:19.252Z,0.93
2017-06-29T21:06:59.728Z,1.10
2017-06-29T21:09:33.037Z,1.20
2017-06-29T21:12:05.272Z,0.70
2017-06-29T21:14:32.383Z,0.90
2017-06-29T21:17:09.936Z,0.90
2017-06-29T21:19:42.424Z,0.80
2017-06-29T21:22:16.725Z,1.30
2017-06-29T21:24:42.894Z,1.20
2017-06-29T21:27:09.027Z,1.17
2017-06-29T21:29:38.599Z,1.40
2017-06-29T21:32:14.795Z,1.30
2017-06-29T21:34:40.847Z,3.03
2017-06-29T21:37:12.458Z,1.13
2017-06-29T21:39:38.576Z,1.00
2017-06-29T21:42:04.707Z,1.83
2017-06-29T21:44:37.288Z,1.43
2017-06-29T21:49:57.378Z,1.77
2017-06-29T21:52:40.738Z,1.33
2017-06-29T21:55:21.085Z,1.17
2017-06-29T21:57:54.490Z,1.60
2017-06-29T22:00:21.238Z,1.50
2017-06-29T22:02:47.990Z,1.23
2017-06-29T22:05:14.002Z,1.47
2017-06-29T22:07:39.990Z,1.20
2017-06-29T22:10:05.996Z,1.47
2017-06-29T22:12:31.987Z,1.20
2017-06-29T22:14:58.739Z,1.33
2017-06-29T22:17:25.501Z,1.53
2017-06-29T22:19:51.508Z,1.57
2017-06-29T22:22:17.571Z,1.20
2017-06-29T22:24:43.568Z,1.10
2017-06-29T22:27:09.571Z,1.40
2017-06-29T22:29:35.585Z,0.97
2017-06-29T22:32:01.576Z,1.70
2017-06-29T22:34:27.592Z,1.20
2017-06-29T22:36:55.509Z,1.40
2017-06-29T22:39:21.540Z,0.83
2017-06-29T22:41:47.618Z,1.00
2017-06-29T22:44:13.624Z,1.10
2017-06-29T22:46:39.652Z,0.70
2017-06-29T22:49:05.679Z,1.30
2017-06-29T22:51:31.717Z,1.80
2017-06-29T22:53:57.744Z,1.10
2017-06-29T22:56:23.767Z,1.40
2017-06-29T22:58:49.762Z,1.67
2017-06-29T23:01:15.812Z,1.43
2017-06-29T23:03:41.800Z,1.40
2017-06-29T23:06:07.796Z,1.33
2017-06-29T23:08:34.542Z,1.30
2017-06-29T23:11:00.548Z,1.30
2017-06-29T23:13:26.552Z,1.17
2017-06-29T23:15:52.543Z,2.80
2017-06-29T23:18:18.561Z,1.50
2017-06-29T23:20:45.292Z,1.53
2017-06-29T23:23:11.330Z,1.70
2017-06-29T23:25:37.330Z,1.33
2017-06-29T23:28:03.347Z,1.30
2017-06-29T23:30:29.363Z,1.83
2017-06-29T23:32:55.359Z,2.13
2017-06-29T23:35:21.335Z,1.27
2017-06-29T23:37:47.352Z,1.20
2017-06-29T23:40:13.371Z,1.83
2017-06-29T23:42:40.096Z,1.70
2017-06-29T23:45:06.840Z,1.47
2017-06-29T23:47:32.820Z,1.73
2017-06-29T23:49:58.833Z,1.57
2017-06-29T23:52:24.829Z,1.10
2017-06-29T23:54:51.641Z,1.30
2017-06-29T23:57:17.644Z,1.33
2017-06-29T23:59:43.643Z,1.50
